sensor_id;sensor_type;location;lat;lon;timestamp;P1;durP1;ratioP1;P2;durP2;ratioP2
3217;SDS011;1621;49.702;8.618;2024-03-06T00:00:47;7.37;;;4.80;;
3217;SDS011;1621;49.702;8.618;2024-03-06T00:03:13;7.63;;;5.10;;
3217;SDS011;1621;49.702;8.618;2024-03-06T00:05:39;11.40;;;5.43;;
3217;SDS011;1621;49.702;8.618;2024-03-06T00:08:06;6.23;;;4.20;;
3217;SDS011;1621;49.702;8.618;2024-03-06T00:10:32;9.20;;;5.17;;
3217;SDS011;1621;49.702;8.618;2024-03-06T00:12:59;8.10;;;5.23;;
3217;SDS011;1621;49.702;8.618;2024-03-06T00:15:25;11.37;;;5.43;;
3217;SDS011;1621;49.702;8.618;2024-03-06T00:17:54;7.50;;;5.10;;
3217;SDS011;1621;49.702;8.618;2024-03-06T00:20:20;8.70;;;5.50;;
3217;SDS011;1621;49.702;8.618;2024-03-06T00:22:46;7.33;;;5.40;;
3217;SDS011;1621;49.702;8.618;2024-03-06T00:25:13;6.80;;;5.03;;
3217;SDS011;1621;49.702;8.618;2024-03-06T00:27:39;7.57;;;5.30;;
3217;SDS011;1621;49.702;8.618;2024-03-06T00:30:06;7.50;;;5.03;;
3217;SDS011;1621;49.702;8.618;2024-03-06T00:32:33;7.40;;;5.50;;
3217;SDS011;1621;49.702;8.618;2024-03-06T00:35:00;7.27;;;5.47;;
3217;SDS011;1621;49.702;8.618;2024-03-06T00:37:26;8.20;;;5.43;;
3217;SDS011;1621;49.702;8.618;2024-03-06T00:39:53;8.07;;;5.27;;
3217;SDS011;1621;49.702;8.618;2024-03-06T00:42:19;8.30;;;5.07;;
3217;SDS011;1621;49.702;8.618;2024-03-06T00:44:46;9.43;;;5.23;;
3217;SDS011;1621;49.702;8.618;2024-03-06T00:47:12;11.20;;;5.47;;
3217;SDS011;1621;49.702;8.618;2024-03-06T00:49:38;7.87;;;5.90;;
3217;SDS011;1621;49.702;8.618;2024-03-06T00:52:08;9.60;;;5.80;;
3217;SDS011;1621;49.702;8.618;2024-03-06T00:54:34;10.77;;;6.27;;
3217;SDS011;1621;49.702;8.618;2024-03-06T00:57:01;8.53;;;5.63;;
3217;SDS011;1621;49.702;8.618;2024-03-06T00:59:27;7.87;;;5.43;;
3217;SDS011;1621;49.702;8.618;2024-03-06T01:01:54;8.20;;;5.13;;
3217;SDS011;1621;49.702;8.618;2024-03-06T01:04:21;9.07;;;5.07;;
3217;SDS011;1621;49.702;8.618;2024-03-06T01:06:47;10.37;;;6.00;;
3217;SDS011;1621;49.702;8.618;2024-03-06T01:09:15;10.03;;;6.00;;
3217;SDS011;1621;49.702;8.618;2024-03-06T01:11:41;8.37;;;6.00;;
3217;SDS011;1621;49.702;8.618;2024-03-06T01:14:07;7.90;;;5.40;;
3217;SDS011;1621;49.702;8.618;2024-03-06T01:16:33;8.70;;;6.17;;
3217;SDS011;1621;49.702;8.618;2024-03-06T01:19:00;7.43;;;5.80;;
3217;SDS011;1621;49.702;8.618;2024-03-06T01:21:26;7.53;;;5.50;;
3217;SDS011;1621;49.702;8.618;2024-03-06T01:23:54;8.17;;;5.60;;
3217;SDS011;1621;49.702;8.618;2024-03-06T01:26:21;7.13;;;5.53;;
3217;SDS011;1621;49.702;8.618;2024-03-06T01:28:47;11.40;;;6.20;;
3217;SDS011;1621;49.702;8.618;2024-03-06T01:31:14;8.23;;;6.07;;
3217;SDS011;1621;49.702;8.618;2024-03-06T01:33:40;12.93;;;6.00;;
3217;SDS011;1621;49.702;8.618;2024-03-06T01:36:06;9.40;;;6.20;;
3217;SDS011;1621;49.702;8.618;2024-03-06T01:38:33;8.63;;;6.23;;
3217;SDS011;1621;49.702;8.618;2024-03-06T01:40:59;8.50;;;6.03;;
3217;SDS011;1621;49.702;8.618;2024-03-06T01:43:27;9.83;;;6.00;;
3217;SDS011;1621;49.702;8.618;2024-03-06T01:45:53;10.60;;;6.47;;
3217;SDS011;1621;49.702;8.618;2024-03-06T01:48:20;10.10;;;6.27;;
3217;SDS011;1621;49.702;8.618;2024-03-06T01:50:47;10.20;;;6.70;;
3217;SDS011;1621;49.702;8.618;2024-03-06T01:53:14;9.77;;;5.90;;
3217;SDS011;1621;49.702;8.618;2024-03-06T01:55:41;7.83;;;6.30;;
3217;SDS011;1621;49.702;8.618;2024-03-06T01:58:07;8.10;;;6.20;;
3217;SDS011;1621;49.702;8.618;2024-03-06T02:00:35;12.37;;;6.33;;
3217;SDS011;1621;49.702;8.618;2024-03-06T02:03:02;8.30;;;5.93;;
3217;SDS011;1621;49.702;8.618;2024-03-06T02:05:28;8.77;;;6.17;;
3217;SDS011;1621;49.702;8.618;2024-03-06T02:07:56;10.20;;;6.17;;
3217;SDS011;1621;49.702;8.618;2024-03-06T02:10:22;8.47;;;6.20;;
3217;SDS011;1621;49.702;8.618;2024-03-06T02:12:48;9.17;;;6.23;;
3217;SDS011;1621;49.702;8.618;2024-03-06T02:15:15;10.63;;;6.33;;
3217;SDS011;1621;49.702;8.618;2024-03-06T02:17:43;10.73;;;6.77;;
3217;SDS011;1621;49.702;8.618;2024-03-06T02:20:11;8.40;;;6.43;;
3217;SDS011;1621;49.702;8.618;2024-03-06T02:22:40;10.17;;;6.90;;
3217;SDS011;1621;49.702;8.618;2024-03-06T02:25:07;9.27;;;6.70;;
3217;SDS011;1621;49.702;8.618;2024-03-06T02:27:33;11.50;;;7.67;;
3217;SDS011;1621;49.702;8.618;2024-03-06T02:29:59;8.87;;;6.73;;
3217;SDS011;1621;49.702;8.618;2024-03-06T02:32:25;10.13;;;6.60;;
3217;SDS011;1621;49.702;8.618;2024-03-06T02:34:52;9.23;;;6.43;;
3217;SDS011;1621;49.702;8.618;2024-03-06T02:37:18;9.40;;;6.53;;
3217;SDS011;1621;49.702;8.618;2024-03-06T02:39:46;11.50;;;7.50;;
3217;SDS011;1621;49.702;8.618;2024-03-06T02:42:12;11.90;;;6.70;;
3217;SDS011;1621;49.702;8.618;2024-03-06T02:44:38;8.73;;;6.90;;
3217;SDS011;1621;49.702;8.618;2024-03-06T02:47:04;12.33;;;7.30;;
3217;SDS011;1621;49.702;8.618;2024-03-06T02:49:31;9.87;;;6.73;;
3217;SDS011;1621;49.702;8.618;2024-03-06T02:51:57;8.57;;;6.40;;
3217;SDS011;1621;49.702;8.618;2024-03-06T02:54:26;14.43;;;7.10;;
3217;SDS011;1621;49.702;8.618;2024-03-06T02:56:53;10.17;;;7.30;;
3217;SDS011;1621;49.702;8.618;2024-03-06T02:59:19;9.23;;;6.27;;
3217;SDS011;1621;49.702;8.618;2024-03-06T03:01:46;8.80;;;6.57;;
3217;SDS011;1621;49.702;8.618;2024-03-06T03:04:12;10.70;;;6.87;;
3217;SDS011;1621;49.702;8.618;2024-03-06T03:06:38;12.33;;;6.80;;
3217;SDS011;1621;49.702;8.618;2024-03-06T03:09:05;13.40;;;6.97;;
3217;SDS011;1621;49.702;8.618;2024-03-06T03:11:31;10.20;;;6.63;;
3217;SDS011;1621;49.702;8.618;2024-03-06T03:13:59;14.53;;;8.20;;
3217;SDS011;1621;49.702;8.618;2024-03-06T03:16:25;9.73;;;7.10;;
3217;SDS011;1621;49.702;8.618;2024-03-06T03:18:51;10.90;;;7.80;;
3217;SDS011;1621;49.702;8.618;2024-03-06T03:21:18;10.87;;;7.10;;
3217;SDS011;1621;49.702;8.618;2024-03-06T03:23:44;10.03;;;7.20;;
3217;SDS011;1621;49.702;8.618;2024-03-06T03:26:10;9.50;;;7.00;;
3217;SDS011;1621;49.702;8.618;2024-03-06T03:28:37;9.47;;;6.77;;
3217;SDS011;1621;49.702;8.618;2024-03-06T03:31:05;12.77;;;7.90;;
3217;SDS011;1621;49.702;8.618;2024-03-06T03:33:32;11.03;;;7.97;;
3217;SDS011;1621;49.702;8.618;2024-03-06T03:35:58;12.70;;;7.37;;
3217;SDS011;1621;49.702;8.618;2024-03-06T03:38:25;11.77;;;8.20;;
3217;SDS011;1621;49.702;8.618;2024-03-06T03:40:51;10.60;;;7.40;;
3217;SDS011;1621;49.702;8.618;2024-03-06T03:43:17;10.97;;;7.80;;
3217;SDS011;1621;49.702;8.618;2024-03-06T03:45:44;10.37;;;7.20;;
3217;SDS011;1621;49.702;8.618;2024-03-06T03:48:12;11.00;;;7.33;;
3217;SDS011;1621;49.702;8.618;2024-03-06T03:50:38;12.10;;;8.30;;
3217;SDS011;1621;49.702;8.618;2024-03-06T03:53:04;8.40;;;6.83;;
3217;SDS011;1621;49.702;8.618;2024-03-06T03:55:30;11.90;;;7.10;;
3217;SDS011;1621;49.702;8.618;2024-03-06T03:57:57;12.27;;;8.20;;
3217;SDS011;1621;49.702;8.618;2024-03-06T04:00:23;10.43;;;7.27;;
3217;SDS011;1621;49.702;8.618;2024-03-06T04:02:49;10.00;;;7.20;;
3217;SDS011;1621;49.702;8.618;2024-03-06T04:05:17;12.70;;;7.20;;
3217;SDS011;1621;49.702;8.618;2024-03-06T04:07:43;9.70;;;7.17;;
3217;SDS011;1621;49.702;8.618;2024-03-06T04:10:10;9.70;;;7.10;;
3217;SDS011;1621;49.702;8.618;2024-03-06T04:12:36;10.87;;;7.60;;
3217;SDS011;1621;49.702;8.618;2024-03-06T04:15:04;10.33;;;6.83;;
3217;SDS011;1621;49.702;8.618;2024-03-06T04:17:30;11.50;;;7.80;;
3217;SDS011;1621;49.702;8.618;2024-03-06T04:19:57;10.07;;;7.03;;
3217;SDS011;1621;49.702;8.618;2024-03-06T04:22:24;10.30;;;6.90;;
3217;SDS011;1621;49.702;8.618;2024-03-06T04:24:51;11.27;;;7.07;;
3217;SDS011;1621;49.702;8.618;2024-03-06T04:27:17;10.73;;;8.20;;
3217;SDS011;1621;49.702;8.618;2024-03-06T04:29:43;11.43;;;7.30;;
3217;SDS011;1621;49.702;8.618;2024-03-06T04:32:10;12.30;;;7.10;;
3217;SDS011;1621;49.702;8.618;2024-03-06T04:34:36;12.27;;;6.43;;
3217;SDS011;1621;49.702;8.618;2024-03-06T04:37:02;8.53;;;6.03;;
3217;SDS011;1621;49.702;8.618;2024-03-06T04:39:30;8.53;;;6.30;;
3217;SDS011;1621;49.702;8.618;2024-03-06T04:41:57;10.57;;;6.47;;
3217;SDS011;1621;49.702;8.618;2024-03-06T04:44:24;8.20;;;6.20;;
3217;SDS011;1621;49.702;8.618;2024-03-06T04:46:50;7.20;;;5.33;;
3217;SDS011;1621;49.702;8.618;2024-03-06T04:49:16;9.03;;;6.60;;
3217;SDS011;1621;49.702;8.618;2024-03-06T04:51:43;12.93;;;6.07;;
3217;SDS011;1621;49.702;8.618;2024-03-06T04:54:09;9.30;;;6.00;;
3217;SDS011;1621;49.702;8.618;2024-03-06T04:56:37;7.13;;;4.90;;
3217;SDS011;1621;49.702;8.618;2024-03-06T04:59:03;8.83;;;5.83;;
3217;SDS011;1621;49.702;8.618;2024-03-06T05:01:30;12.40;;;7.07;;
3217;SDS011;1621;49.702;8.618;2024-03-06T05:03:56;12.50;;;7.50;;
3217;SDS011;1621;49.702;8.618;2024-03-06T05:06:23;12.90;;;7.20;;
3217;SDS011;1621;49.702;8.618;2024-03-06T05:08:49;11.00;;;7.00;;
3217;SDS011;1621;49.702;8.618;2024-03-06T05:11:15;10.40;;;6.67;;
3217;SDS011;1621;49.702;8.618;2024-03-06T05:13:43;12.00;;;8.03;;
3217;SDS011;1621;49.702;8.618;2024-03-06T05:16:09;13.10;;;6.77;;
3217;SDS011;1621;49.702;8.618;2024-03-06T05:18:36;9.60;;;6.90;;
3217;SDS011;1621;49.702;8.618;2024-03-06T05:21:02;13.17;;;7.50;;
3217;SDS011;1621;49.702;8.618;2024-03-06T05:23:28;11.20;;;7.37;;
3217;SDS011;1621;49.702;8.618;2024-03-06T05:25:55;12.80;;;7.47;;
3217;SDS011;1621;49.702;8.618;2024-03-06T05:28:21;10.87;;;7.43;;
3217;SDS011;1621;49.702;8.618;2024-03-06T05:30:49;10.80;;;6.53;;
3217;SDS011;1621;49.702;8.618;2024-03-06T05:33:15;9.20;;;6.40;;
3217;SDS011;1621;49.702;8.618;2024-03-06T05:35:41;9.37;;;6.20;;
3217;SDS011;1621;49.702;8.618;2024-03-06T05:38:08;10.23;;;5.93;;
3217;SDS011;1621;49.702;8.618;2024-03-06T05:40:34;12.30;;;6.17;;
3217;SDS011;1621;49.702;8.618;2024-03-06T05:43:02;8.83;;;5.83;;
3217;SDS011;1621;49.702;8.618;2024-03-06T05:45:28;7.53;;;5.60;;
3217;SDS011;1621;49.702;8.618;2024-03-06T05:47:56;6.63;;;4.37;;
3217;SDS011;1621;49.702;8.618;2024-03-06T05:50:22;10.70;;;6.27;;
3217;SDS011;1621;49.702;8.618;2024-03-06T05:52:49;8.80;;;5.97;;
3217;SDS011;1621;49.702;8.618;2024-03-06T05:55:15;7.40;;;5.50;;
3217;SDS011;1621;49.702;8.618;2024-03-06T05:57:41;10.63;;;6.20;;
3217;SDS011;1621;49.702;8.618;2024-03-06T06:00:11;9.23;;;6.10;;
3217;SDS011;1621;49.702;8.618;2024-03-06T06:02:37;8.10;;;5.60;;
3217;SDS011;1621;49.702;8.618;2024-03-06T06:05:05;7.87;;;5.40;;
3217;SDS011;1621;49.702;8.618;2024-03-06T06:07:32;7.37;;;5.20;;
3217;SDS011;1621;49.702;8.618;2024-03-06T06:09:58;8.90;;;6.03;;
3217;SDS011;1621;49.702;8.618;2024-03-06T06:12:24;10.40;;;6.83;;
3217;SDS011;1621;49.702;8.618;2024-03-06T06:14:51;7.43;;;4.97;;
3217;SDS011;1621;49.702;8.618;2024-03-06T06:17:17;9.17;;;5.67;;
3217;SDS011;1621;49.702;8.618;2024-03-06T06:19:43;8.60;;;6.00;;
3217;SDS011;1621;49.702;8.618;2024-03-06T06:22:11;12.50;;;6.83;;
3217;SDS011;1621;49.702;8.618;2024-03-06T06:24:38;8.10;;;6.10;;
3217;SDS011;1621;49.702;8.618;2024-03-06T06:27:05;9.93;;;6.70;;
3217;SDS011;1621;49.702;8.618;2024-03-06T06:29:32;10.43;;;6.73;;
3217;SDS011;1621;49.702;8.618;2024-03-06T06:31:58;7.70;;;6.03;;
3217;SDS011;1621;49.702;8.618;2024-03-06T06:34:24;9.40;;;6.50;;
3217;SDS011;1621;49.702;8.618;2024-03-06T06:36:52;9.83;;;7.10;;
3217;SDS011;1621;49.702;8.618;2024-03-06T06:39:20;7.67;;;6.43;;
3217;SDS011;1621;49.702;8.618;2024-03-06T06:41:46;10.03;;;6.00;;
3217;SDS011;1621;49.702;8.618;2024-03-06T06:44:13;11.10;;;7.83;;
3217;SDS011;1621;49.702;8.618;2024-03-06T06:46:39;9.93;;;7.73;;
3217;SDS011;1621;49.702;8.618;2024-03-06T06:49:06;10.77;;;8.00;;
3217;SDS011;1621;49.702;8.618;2024-03-06T06:51:32;12.60;;;8.93;;
3217;SDS011;1621;49.702;8.618;2024-03-06T06:53:58;13.37;;;9.37;;
3217;SDS011;1621;49.702;8.618;2024-03-06T06:56:26;10.13;;;8.77;;
3217;SDS011;1621;49.702;8.618;2024-03-06T06:58:52;13.10;;;8.83;;
3217;SDS011;1621;49.702;8.618;2024-03-06T07:01:18;14.83;;;9.00;;
3217;SDS011;1621;49.702;8.618;2024-03-06T07:03:45;12.17;;;9.30;;
3217;SDS011;1621;49.702;8.618;2024-03-06T07:06:11;10.80;;;8.60;;
3217;SDS011;1621;49.702;8.618;2024-03-06T07:08:38;12.50;;;8.80;;
3217;SDS011;1621;49.702;8.618;2024-03-06T07:11:04;12.70;;;8.73;;
3217;SDS011;1621;49.702;8.618;2024-03-06T07:13:32;15.00;;;9.90;;
3217;SDS011;1621;49.702;8.618;2024-03-06T07:15:58;14.07;;;9.67;;
3217;SDS011;1621;49.702;8.618;2024-03-06T07:18:24;15.67;;;9.47;;
3217;SDS011;1621;49.702;8.618;2024-03-06T07:20:50;12.03;;;9.13;;
3217;SDS011;1621;49.702;8.618;2024-03-06T07:23:17;12.40;;;9.03;;
3217;SDS011;1621;49.702;8.618;2024-03-06T07:25:43;14.40;;;9.43;;
3217;SDS011;1621;49.702;8.618;2024-03-06T07:28:09;12.70;;;9.33;;
3217;SDS011;1621;49.702;8.618;2024-03-06T07:30:37;12.03;;;9.50;;
3217;SDS011;1621;49.702;8.618;2024-03-06T07:33:04;13.00;;;9.40;;
3217;SDS011;1621;49.702;8.618;2024-03-06T07:35:30;14.77;;;9.20;;
3217;SDS011;1621;49.702;8.618;2024-03-06T07:37:56;13.00;;;9.63;;
3217;SDS011;1621;49.702;8.618;2024-03-06T07:40:22;13.63;;;9.50;;
3217;SDS011;1621;49.702;8.618;2024-03-06T07:42:49;12.67;;;9.20;;
3217;SDS011;1621;49.702;8.618;2024-03-06T07:45:16;15.60;;;10.70;;
3217;SDS011;1621;49.702;8.618;2024-03-06T07:47:44;14.50;;;10.50;;
3217;SDS011;1621;49.702;8.618;2024-03-06T07:50:10;12.67;;;9.60;;
3217;SDS011;1621;49.702;8.618;2024-03-06T07:52:37;12.00;;;9.37;;
3217;SDS011;1621;49.702;8.618;2024-03-06T07:55:05;15.73;;;11.20;;
3217;SDS011;1621;49.702;8.618;2024-03-06T07:57:31;16.13;;;10.23;;
3217;SDS011;1621;49.702;8.618;2024-03-06T07:59:58;15.17;;;10.20;;
3217;SDS011;1621;49.702;8.618;2024-03-06T08:02:24;14.37;;;10.20;;
3217;SDS011;1621;49.702;8.618;2024-03-06T08:04:52;15.37;;;10.40;;
3217;SDS011;1621;49.702;8.618;2024-03-06T08:07:18;13.93;;;9.47;;
3217;SDS011;1621;49.702;8.618;2024-03-06T08:09:44;11.50;;;8.93;;
3217;SDS011;1621;49.702;8.618;2024-03-06T08:12:10;12.53;;;9.33;;
3217;SDS011;1621;49.702;8.618;2024-03-06T08:14:37;11.80;;;8.70;;
3217;SDS011;1621;49.702;8.618;2024-03-06T08:17:03;11.90;;;8.37;;
3217;SDS011;1621;49.702;8.618;2024-03-06T08:19:29;11.47;;;9.23;;
3217;SDS011;1621;49.702;8.618;2024-03-06T08:21:57;13.67;;;8.20;;
3217;SDS011;1621;49.702;8.618;2024-03-06T08:24:23;12.13;;;9.27;;
3217;SDS011;1621;49.702;8.618;2024-03-06T08:26:50;13.47;;;10.37;;
3217;SDS011;1621;49.702;8.618;2024-03-06T08:29:16;10.70;;;8.90;;
3217;SDS011;1621;49.702;8.618;2024-03-06T08:31:43;9.83;;;8.33;;
3217;SDS011;1621;49.702;8.618;2024-03-06T08:34:09;12.33;;;8.60;;
3217;SDS011;1621;49.702;8.618;2024-03-06T08:36:35;10.83;;;8.07;;
3217;SDS011;1621;49.702;8.618;2024-03-06T08:39:03;12.27;;;9.27;;
3217;SDS011;1621;49.702;8.618;2024-03-06T08:41:32;14.43;;;8.57;;
3217;SDS011;1621;49.702;8.618;2024-03-06T08:43:58;10.93;;;8.80;;
3217;SDS011;1621;49.702;8.618;2024-03-06T08:46:24;10.83;;;8.90;;
3217;SDS011;1621;49.702;8.618;2024-03-06T08:48:51;10.33;;;8.80;;
3217;SDS011;1621;49.702;8.618;2024-03-06T08:51:17;11.37;;;8.73;;
3217;SDS011;1621;49.702;8.618;2024-03-06T08:53:43;11.70;;;8.70;;
3217;SDS011;1621;49.702;8.618;2024-03-06T08:56:11;14.73;;;9.40;;
3217;SDS011;1621;49.702;8.618;2024-03-06T08:58:37;11.90;;;8.80;;
3217;SDS011;1621;49.702;8.618;2024-03-06T09:01:03;13.27;;;9.17;;
3217;SDS011;1621;49.702;8.618;2024-03-06T09:03:30;11.50;;;9.53;;
3217;SDS011;1621;49.702;8.618;2024-03-06T09:05:56;11.97;;;8.60;;
3217;SDS011;1621;49.702;8.618;2024-03-06T09:08:23;10.77;;;8.60;;
3217;SDS011;1621;49.702;8.618;2024-03-06T09:10:50;12.17;;;9.07;;
3217;SDS011;1621;49.702;8.618;2024-03-06T09:13:17;10.90;;;8.33;;
3217;SDS011;1621;49.702;8.618;2024-03-06T09:15:44;10.93;;;8.70;;
3217;SDS011;1621;49.702;8.618;2024-03-06T09:18:10;12.07;;;9.13;;
3217;SDS011;1621;49.702;8.618;2024-03-06T09:20:36;12.73;;;8.70;;
3217;SDS011;1621;49.702;8.618;2024-03-06T09:23:02;11.10;;;9.40;;
3217;SDS011;1621;49.702;8.618;2024-03-06T09:25:29;11.27;;;9.10;;
3217;SDS011;1621;49.702;8.618;2024-03-06T09:27:55;13.50;;;8.20;;
3217;SDS011;1621;49.702;8.618;2024-03-06T09:30:23;12.90;;;8.63;;
3217;SDS011;1621;49.702;8.618;2024-03-06T09:32:49;10.67;;;7.90;;
3217;SDS011;1621;49.702;8.618;2024-03-06T09:35:16;13.70;;;9.90;;
3217;SDS011;1621;49.702;8.618;2024-03-06T09:37:44;16.90;;;9.33;;
3217;SDS011;1621;49.702;8.618;2024-03-06T09:40:11;12.10;;;9.67;;
3217;SDS011;1621;49.702;8.618;2024-03-06T09:42:45;11.00;;;9.20;;
3217;SDS011;1621;49.702;8.618;2024-03-06T09:45:11;11.00;;;8.23;;
3217;SDS011;1621;49.702;8.618;2024-03-06T09:47:39;11.70;;;8.90;;
3217;SDS011;1621;49.702;8.618;2024-03-06T09:50:07;12.90;;;9.53;;
3217;SDS011;1621;49.702;8.618;2024-03-06T09:52:34;15.60;;;10.83;;
3217;SDS011;1621;49.702;8.618;2024-03-06T09:55:02;13.70;;;10.80;;
3217;SDS011;1621;49.702;8.618;2024-03-06T09:57:28;16.60;;;11.60;;
3217;SDS011;1621;49.702;8.618;2024-03-06T09:59:55;14.87;;;10.63;;
3217;SDS011;1621;49.702;8.618;2024-03-06T10:02:26;17.83;;;11.00;;
3217;SDS011;1621;49.702;8.618;2024-03-06T10:04:56;20.10;;;11.70;;
3217;SDS011;1621;49.702;8.618;2024-03-06T10:07:23;16.40;;;12.53;;
3217;SDS011;1621;49.702;8.618;2024-03-06T10:09:49;14.30;;;11.57;;
3217;SDS011;1621;49.702;8.618;2024-03-06T10:12:16;16.60;;;12.40;;
3217;SDS011;1621;49.702;8.618;2024-03-06T10:14:48;16.10;;;12.20;;
3217;SDS011;1621;49.702;8.618;2024-03-06T10:17:14;18.33;;;13.13;;
3217;SDS011;1621;49.702;8.618;2024-03-06T10:19:44;16.20;;;13.27;;
3217;SDS011;1621;49.702;8.618;2024-03-06T10:22:16;24.13;;;14.90;;
3217;SDS011;1621;49.702;8.618;2024-03-06T10:24:43;18.90;;;14.60;;
3217;SDS011;1621;49.702;8.618;2024-03-06T10:27:13;18.30;;;13.20;;
3217;SDS011;1621;49.702;8.618;2024-03-06T10:29:40;20.93;;;14.93;;
3217;SDS011;1621;49.702;8.618;2024-03-06T10:32:07;23.00;;;14.00;;
3217;SDS011;1621;49.702;8.618;2024-03-06T10:34:33;17.90;;;12.97;;
3217;SDS011;1621;49.702;8.618;2024-03-06T10:37:00;17.67;;;13.77;;
3217;SDS011;1621;49.702;8.618;2024-03-06T10:39:30;17.73;;;13.43;;
3217;SDS011;1621;49.702;8.618;2024-03-06T10:41:57;18.73;;;14.37;;
3217;SDS011;1621;49.702;8.618;2024-03-06T10:44:24;18.30;;;13.70;;
3217;SDS011;1621;49.702;8.618;2024-03-06T10:46:51;19.00;;;12.60;;
3217;SDS011;1621;49.702;8.618;2024-03-06T10:49:22;18.90;;;13.83;;
3217;SDS011;1621;49.702;8.618;2024-03-06T10:51:48;21.60;;;14.90;;
3217;SDS011;1621;49.702;8.618;2024-03-06T10:54:15;17.97;;;13.90;;
3217;SDS011;1621;49.702;8.618;2024-03-06T10:56:43;21.37;;;14.47;;
3217;SDS011;1621;49.702;8.618;2024-03-06T10:59:10;18.10;;;14.03;;
3217;SDS011;1621;49.702;8.618;2024-03-06T11:01:37;20.33;;;15.63;;
3217;SDS011;1621;49.702;8.618;2024-03-06T11:04:05;21.83;;;15.50;;
3217;SDS011;1621;49.702;8.618;2024-03-06T11:06:31;19.63;;;14.10;;
3217;SDS011;1621;49.702;8.618;2024-03-06T11:08:58;20.20;;;15.10;;
3217;SDS011;1621;49.702;8.618;2024-03-06T11:11:24;23.10;;;15.50;;
3217;SDS011;1621;49.702;8.618;2024-03-06T11:13:55;20.47;;;16.17;;
3217;SDS011;1621;49.702;8.618;2024-03-06T11:16:26;18.83;;;14.80;;
3217;SDS011;1621;49.702;8.618;2024-03-06T11:18:53;18.07;;;13.57;;
3217;SDS011;1621;49.702;8.618;2024-03-06T11:21:33;18.07;;;12.53;;
3217;SDS011;1621;49.702;8.618;2024-03-06T11:24:12;18.73;;;12.57;;
3217;SDS011;1621;49.702;8.618;2024-03-06T11:26:41;15.33;;;11.43;;
3217;SDS011;1621;49.702;8.618;2024-03-06T11:29:09;15.87;;;11.70;;
3217;SDS011;1621;49.702;8.618;2024-03-06T11:31:35;14.63;;;11.27;;
3217;SDS011;1621;49.702;8.618;2024-03-06T11:34:02;16.10;;;11.20;;
3217;SDS011;1621;49.702;8.618;2024-03-06T11:36:29;15.67;;;11.13;;
3217;SDS011;1621;49.702;8.618;2024-03-06T11:38:56;19.13;;;12.60;;
3217;SDS011;1621;49.702;8.618;2024-03-06T11:41:23;13.90;;;11.00;;
3217;SDS011;1621;49.702;8.618;2024-03-06T11:43:50;15.37;;;11.20;;
3217;SDS011;1621;49.702;8.618;2024-03-06T11:46:19;16.63;;;11.90;;
3217;SDS011;1621;49.702;8.618;2024-03-06T11:48:55;16.20;;;10.83;;
3217;SDS011;1621;49.702;8.618;2024-03-06T11:51:21;17.33;;;12.17;;
3217;SDS011;1621;49.702;8.618;2024-03-06T11:53:51;16.50;;;12.27;;
3217;SDS011;1621;49.702;8.618;2024-03-06T11:56:18;16.20;;;11.97;;
3217;SDS011;1621;49.702;8.618;2024-03-06T11:58:45;17.37;;;12.83;;
3217;SDS011;1621;49.702;8.618;2024-03-06T12:01:11;18.73;;;13.53;;
3217;SDS011;1621;49.702;8.618;2024-03-06T12:03:39;16.90;;;12.73;;
3217;SDS011;1621;49.702;8.618;2024-03-06T12:06:05;13.97;;;10.70;;
3217;SDS011;1621;49.702;8.618;2024-03-06T12:08:32;18.60;;;12.90;;
3217;SDS011;1621;49.702;8.618;2024-03-06T12:11:01;16.73;;;12.50;;
3217;SDS011;1621;49.702;8.618;2024-03-06T12:13:29;18.60;;;13.20;;
3217;SDS011;1621;49.702;8.618;2024-03-06T12:15:55;19.83;;;12.30;;
3217;SDS011;1621;49.702;8.618;2024-03-06T12:18:22;14.47;;;11.23;;
3217;SDS011;1621;49.702;8.618;2024-03-06T12:20:50;14.67;;;11.17;;
3217;SDS011;1621;49.702;8.618;2024-03-06T12:23:20;18.07;;;11.57;;
3217;SDS011;1621;49.702;8.618;2024-03-06T12:25:48;18.20;;;12.27;;
3217;SDS011;1621;49.702;8.618;2024-03-06T12:28:14;15.80;;;10.77;;
3217;SDS011;1621;49.702;8.618;2024-03-06T12:30:42;16.00;;;11.53;;
3217;SDS011;1621;49.702;8.618;2024-03-06T12:33:09;15.40;;;11.13;;
3217;SDS011;1621;49.702;8.618;2024-03-06T12:35:39;15.80;;;11.10;;
3217;SDS011;1621;49.702;8.618;2024-03-06T12:38:12;15.27;;;10.83;;
3217;SDS011;1621;49.702;8.618;2024-03-06T12:40:39;15.53;;;11.53;;
3217;SDS011;1621;49.702;8.618;2024-03-06T12:43:05;16.67;;;12.87;;
3217;SDS011;1621;49.702;8.618;2024-03-06T12:45:32;18.63;;;13.27;;
3217;SDS011;1621;49.702;8.618;2024-03-06T12:47:59;20.53;;;14.70;;
3217;SDS011;1621;49.702;8.618;2024-03-06T12:50:25;22.87;;;16.07;;
3217;SDS011;1621;49.702;8.618;2024-03-06T12:52:51;18.93;;;13.83;;
3217;SDS011;1621;49.702;8.618;2024-03-06T12:55:19;21.07;;;14.13;;
3217;SDS011;1621;49.702;8.618;2024-03-06T12:57:46;19.23;;;14.80;;
3217;SDS011;1621;49.702;8.618;2024-03-06T13:00:12;20.23;;;14.60;;
3217;SDS011;1621;49.702;8.618;2024-03-06T13:02:41;19.57;;;14.20;;
3217;SDS011;1621;49.702;8.618;2024-03-06T13:05:09;18.83;;;14.30;;
3217;SDS011;1621;49.702;8.618;2024-03-06T13:07:35;18.60;;;14.40;;
3217;SDS011;1621;49.702;8.618;2024-03-06T13:10:01;20.10;;;14.43;;
3217;SDS011;1621;49.702;8.618;2024-03-06T13:12:29;18.70;;;13.50;;
3217;SDS011;1621;49.702;8.618;2024-03-06T13:14:55;17.90;;;13.40;;
3217;SDS011;1621;49.702;8.618;2024-03-06T13:17:22;20.43;;;13.93;;
3217;SDS011;1621;49.702;8.618;2024-03-06T13:19:48;20.50;;;14.27;;
3217;SDS011;1621;49.702;8.618;2024-03-06T13:22:14;22.33;;;14.93;;
3217;SDS011;1621;49.702;8.618;2024-03-06T13:24:41;17.77;;;13.30;;
3217;SDS011;1621;49.702;8.618;2024-03-06T13:27:07;19.80;;;14.43;;
3217;SDS011;1621;49.702;8.618;2024-03-06T13:29:35;18.87;;;13.77;;
3217;SDS011;1621;49.702;8.618;2024-03-06T13:32:01;19.43;;;15.23;;
3217;SDS011;1621;49.702;8.618;2024-03-06T13:34:28;19.13;;;14.43;;
3217;SDS011;1621;49.702;8.618;2024-03-06T13:36:56;20.80;;;15.67;;
3217;SDS011;1621;49.702;8.618;2024-03-06T13:39:22;18.60;;;14.27;;
3217;SDS011;1621;49.702;8.618;2024-03-06T13:41:48;19.37;;;13.60;;
3217;SDS011;1621;49.702;8.618;2024-03-06T13:44:15;17.73;;;13.13;;
3217;SDS011;1621;49.702;8.618;2024-03-06T13:46:42;17.60;;;12.03;;
3217;SDS011;1621;49.702;8.618;2024-03-06T13:49:11;17.00;;;12.20;;
3217;SDS011;1621;49.702;8.618;2024-03-06T13:51:48;17.37;;;13.13;;
3217;SDS011;1621;49.702;8.618;2024-03-06T13:54:14;24.33;;;13.60;;
3217;SDS011;1621;49.702;8.618;2024-03-06T13:56:41;18.70;;;13.03;;
3217;SDS011;1621;49.702;8.618;2024-03-06T13:59:07;16.97;;;12.23;;
3217;SDS011;1621;49.702;8.618;2024-03-06T14:01:33;18.37;;;12.97;;
3217;SDS011;1621;49.702;8.618;2024-03-06T14:04:01;17.53;;;12.57;;
3217;SDS011;1621;49.702;8.618;2024-03-06T14:06:27;20.30;;;13.53;;
3217;SDS011;1621;49.702;8.618;2024-03-06T14:08:53;17.70;;;13.10;;
3217;SDS011;1621;49.702;8.618;2024-03-06T14:11:20;17.40;;;12.63;;
3217;SDS011;1621;49.702;8.618;2024-03-06T14:13:46;18.97;;;12.60;;
3217;SDS011;1621;49.702;8.618;2024-03-06T14:16:13;17.83;;;13.23;;
3217;SDS011;1621;49.702;8.618;2024-03-06T14:18:39;18.43;;;13.33;;
3217;SDS011;1621;49.702;8.618;2024-03-06T14:21:06;20.00;;;12.90;;
3217;SDS011;1621;49.702;8.618;2024-03-06T14:23:33;24.10;;;13.00;;
3217;SDS011;1621;49.702;8.618;2024-03-06T14:26:00;19.20;;;13.47;;
3217;SDS011;1621;49.702;8.618;2024-03-06T14:28:27;19.57;;;13.97;;
3217;SDS011;1621;49.702;8.618;2024-03-06T14:30:53;18.20;;;12.63;;
3217;SDS011;1621;49.702;8.618;2024-03-06T14:33:19;17.30;;;12.77;;
3217;SDS011;1621;49.702;8.618;2024-03-06T14:35:46;17.73;;;12.07;;
3217;SDS011;1621;49.702;8.618;2024-03-06T14:38:15;18.97;;;13.43;;
3217;SDS011;1621;49.702;8.618;2024-03-06T14:40:42;16.07;;;11.47;;
3217;SDS011;1621;49.702;8.618;2024-03-06T14:43:09;17.70;;;12.63;;
3217;SDS011;1621;49.702;8.618;2024-03-06T14:45:35;19.57;;;14.20;;
3217;SDS011;1621;49.702;8.618;2024-03-06T14:48:06;17.30;;;13.30;;
3217;SDS011;1621;49.702;8.618;2024-03-06T14:50:33;19.40;;;14.93;;
3217;SDS011;1621;49.702;8.618;2024-03-06T14:53:00;19.73;;;13.70;;
3217;SDS011;1621;49.702;8.618;2024-03-06T14:55:28;18.93;;;12.70;;
3217;SDS011;1621;49.702;8.618;2024-03-06T14:57:54;18.33;;;12.43;;